^^
Station Historical Data
Daily Summary for August 31, 2017 Units:  English    Metric   Both
« Previous Day
Next Day »
Daily Weekly Monthly Yearly Custom
  High: Low: Average:
Temperature: 78.3 °F 59.6 °F 68.5 °F
Dew Point: 62.8 °F 48.8 °F 58 °F
Humidity: 92% 53% 71%
Wind Speed: 6.0mph 0.0mph 1.2mph
Wind Gust: 14.0mph - -
Wind- - South
Pressure: 30.00 in 29.89 in -
Precipitation: 0.00 in    
Historical Graphs
 
 
Tabular Data for August 31, 2017
Time Temperature Dew Point Pressure Wind Wind Speed Wind Gust Humidity Rainfall Rate (Hourly) Conditions
00:00 65.6 °F 58.6 °F 29.93 in Calm   2.0 mph 78% 0.00 in RA
00:15 65.3 °F 58.3 °F 29.93 in Calm   2.0 mph 78% 0.00 in CLR
00:30 64.6 °F 58.3 °F 29.93 in Calm   2.0 mph 80% 0.00 in CLR
00:45 65.0 °F 58.7 °F 29.93 in Calm   2.0 mph 80% 0.00 in CLR
01:00 64.9 °F 58.6 °F 29.92 in Calm   2.0 mph 80% 0.00 in CLR
01:15 64.2 °F 58.5 °F 29.92 in Calm   2.0 mph 82% 0.00 in CLR
01:30 63.5 °F 58.6 °F 29.92 in Calm   3.0 mph 84% 0.00 in CLR
01:45 63.1 °F 58.5 °F 29.92 in SSW 1.0 mph 4.0 mph 85% 0.00 in CLR
02:00 63.2 °F 58.6 °F 29.92 in South 2.0 mph 5.0 mph 85% 0.00 in CLR
02:15 63.7 °F 58.8 °F 29.91 in South 2.0 mph 5.0 mph 84% 0.00 in CLR
02:30 63.7 °F 58.4 °F 29.91 in Calm   6.0 mph 83% 0.00 in CLR
02:45 63.3 °F 58.4 °F 29.91 in Calm   4.0 mph 84% 0.00 in CLR
03:00 62.4 °F 57.8 °F 29.90 in Calm   1.0 mph 85% 0.00 in CLR
03:15 62.1 °F 57.9 °F 29.91 in Calm   3.0 mph 86% 0.00 in CLR
03:30 61.5 °F 57.9 °F 29.91 in Calm   2.0 mph 88% 0.00 in CLR
03:45 61.1 °F 57.8 °F 29.91 in Calm   1.0 mph 89% 0.00 in CLR
04:00 60.7 °F 57.4 °F 29.91 in Calm   1.0 mph 89% 0.00 in CLR
04:15 60.0 °F 57.1 °F 29.91 in Calm     90% 0.00 in CLR
04:30 59.6 °F 57.3 °F 29.91 in Calm   1.0 mph 92% 0.00 in CLR
04:45 60.4 °F 58.0 °F 29.91 in Calm   1.0 mph 92% 0.00 in CLR
05:00 60.3 °F 57.4 °F 29.91 in Calm   1.0 mph 90% 0.00 in CLR
05:15 60.0 °F 57.4 °F 29.91 in Calm     91% 0.00 in CLR
05:30 59.7 °F 57.4 °F 29.91 in Calm   1.0 mph 92% 0.00 in CLR
05:45 59.9 °F 57.6 °F 29.92 in Calm   1.0 mph 92% 0.00 in CLR
05:59 60.4 °F 57.8 °F 29.92 in SSW 1.0 mph 3.0 mph 91% 0.00 in CLR
06:15 60.8 °F 57.8 °F 29.93 in Calm   4.0 mph 90% 0.00 in CLR
06:30 60.4 °F 57.8 °F 29.93 in Calm   1.0 mph 91% 0.00 in CLR
06:45 60.7 °F 58.1 °F 29.93 in Calm   3.0 mph 91% 0.00 in CLR
07:00 61.0 °F 58.0 °F 29.93 in South 1.0 mph 4.0 mph 90% 0.00 in CLR
07:15 61.3 °F 58.0 °F 29.93 in Calm   3.0 mph 89% 0.00 in CLR
07:30 61.6 °F 58.3 °F 29.94 in Calm   1.0 mph 89% 0.00 in CLR
07:45 61.9 °F 58.3 °F 29.94 in Calm   3.0 mph 88% 0.00 in CLR
08:00 62.4 °F 58.5 °F 29.94 in Calm   4.0 mph 87% 0.00 in CLR
08:15 63.2 °F 58.9 °F 29.94 in Calm   4.0 mph 86% 0.00 in CLR
08:30 64.1 °F 59.1 °F 29.94 in South 1.0 mph 5.0 mph 84% 0.00 in CLR
08:45 66.0 °F 59.6 °F 29.93 in SW 1.0 mph 6.0 mph 80% 0.00 in CLR
09:00 67.3 °F 59.9 °F 29.94 in South 2.0 mph 8.0 mph 77% 0.00 in CLR
09:30 69.8 °F 60.7 °F 29.93 in SW 2.0 mph 6.0 mph 73% 0.00 in CLR
09:45 70.5 °F 61.8 °F 29.93 in WSW 2.0 mph 8.0 mph 74% 0.00 in CLR
09:59 71.8 °F 61.9 °F 29.93 in WSW 1.0 mph 5.0 mph 71% 0.00 in CLR
10:15 72.7 °F 61.5 °F 29.93 in WSW 2.0 mph 8.0 mph 68% 0.00 in CLR
10:30 74.2 °F 62.6 °F 29.93 in SW 1.0 mph 4.0 mph 67% 0.00 in CLR
10:45 74.9 °F 62.8 °F 29.93 in South 2.0 mph 7.0 mph 66% 0.00 in CLR
11:00 74.8 °F 61.8 °F 29.93 in WSW 2.0 mph 12.0 mph 64% 0.00 in CLR
11:30 76.3 °F 62.3 °F 29.92 in WSW 2.0 mph 9.0 mph 62% 0.00 in CLR
11:45 77.0 °F 61.6 °F 29.91 in NNW 6.0 mph 10.0 mph 59% 0.00 in CLR
11:59 77.1 °F 62.2 °F 29.91 in South 1.0 mph 9.0 mph 60% 0.00 in CLR
12:15 77.8 °F 61.3 °F 29.90 in East 5.0 mph 12.0 mph 57% 0.00 in FEW
12:30 77.9 °F 61.4 °F 29.90 in West 3.0 mph 12.0 mph 57% 0.00 in FEW
12:45 77.2 °F 60.8 °F 29.90 in WNW 2.0 mph 12.0 mph 57% 0.00 in FEW
12:59 77.8 °F 61.8 °F 29.90 in SE 2.0 mph 8.0 mph 58% 0.00 in FEW
13:15 78.3 °F 60.8 °F 29.90 in NNE 2.0 mph 9.0 mph 55% 0.00 in SCT
13:30 77.3 °F 60.9 °F 29.89 in West 1.0 mph 10.0 mph 57% 0.00 in SCT
13:45 76.8 °F 61.4 °F 29.89 in South 1.0 mph 9.0 mph 59% 0.00 in SCT
13:59 76.3 °F 61.4 °F 29.90 in South 1.0 mph 13.0 mph 60% 0.00 in SCT
14:15 76.3 °F 61.4 °F 29.90 in WNW 2.0 mph 8.0 mph 60% 0.00 in BKN
14:30 76.7 °F 61.8 °F 29.89 in SSW 3.0 mph 10.0 mph 60% 0.00 in BKN
14:45 76.4 °F 61.0 °F 29.89 in WNW 2.0 mph 9.0 mph 59% 0.00 in BKN
15:00 76.6 °F 60.7 °F 29.89 in NNW 3.0 mph 14.0 mph 58% 0.00 in BKN
15:15 75.6 °F 59.3 °F 29.89 in NE 3.0 mph 10.0 mph 57% 0.00 in BKN
15:30 74.7 °F 59.9 °F 29.90 in NNW 2.0 mph 10.0 mph 60% 0.00 in BKN
15:45 74.2 °F 60.3 °F 29.89 in North 1.0 mph 8.0 mph 62% 0.00 in BKN
15:59 74.0 °F 61.0 °F 29.89 in NNW 2.0 mph 8.0 mph 64% 0.00 in BKN
16:14 73.6 °F 60.7 °F 29.90 in NNE 2.0 mph 7.0 mph 64% 0.00 in BKN
16:30 74.8 °F 61.8 °F 29.89 in NNW 2.0 mph 8.0 mph 64% 0.00 in BKN
16:45 75.0 °F 61.5 °F 29.90 in NNW 3.0 mph 10.0 mph 63% 0.00 in BKN
17:00 75.9 °F 62.0 °F 29.89 in NNE 3.0 mph 12.0 mph 62% 0.00 in BKN
17:15 76.0 °F 61.1 °F 29.90 in NW 3.0 mph 12.0 mph 60% 0.00 in SCT
17:30 74.8 °F 60.4 °F 29.90 in North 1.0 mph 8.0 mph 61% 0.00 in SCT
17:45 73.8 °F 57.6 °F 29.90 in NNE 3.0 mph 12.0 mph 57% 0.00 in SCT
18:00 72.8 °F 57.2 °F 29.91 in North 2.0 mph 10.0 mph 58% 0.00 in SCT
18:15 73.1 °F 57.0 °F 29.91 in NE 1.0 mph 9.0 mph 57% 0.00 in SCT
18:30 72.9 °F 56.3 °F 29.91 in NNW 3.0 mph 12.0 mph 56% 0.00 in SCT
18:45 71.8 °F 55.7 °F 29.92 in North 1.0 mph 8.0 mph 57% 0.00 in SCT
18:59 71.3 °F 53.8 °F 29.92 in NNW 1.0 mph 10.0 mph 54% 0.00 in SCT
19:15 70.7 °F 52.7 °F 29.93 in North 3.0 mph 12.0 mph 53% 0.00 in FEW
19:30 70.0 °F 52.6 °F 29.93 in Calm   6.0 mph 54% 0.00 in FEW
19:45 69.4 °F 52.5 °F 29.93 in NE 1.0 mph 6.0 mph 55% 0.00 in FEW
20:15 68.9 °F 52.5 °F 29.94 in NE 3.0 mph 7.0 mph 56% 0.00 in CLR
20:30 68.8 °F 53.4 °F 29.95 in NNW 1.0 mph 5.0 mph 58% 0.00 in CLR
20:45 68.2 °F 53.4 °F 29.95 in Calm   5.0 mph 59% 0.00 in CLR
21:00 67.7 °F 54.2 °F 29.95 in Calm   5.0 mph 62% 0.00 in CLR
21:15 67.5 °F 53.5 °F 29.96 in NE 1.0 mph 8.0 mph 61% 0.00 in CLR
21:30 67.0 °F 53.5 °F 29.97 in Calm   6.0 mph 62% 0.00 in CLR
21:45 66.7 °F 52.4 °F 29.97 in NNE 2.0 mph 7.0 mph 60% 0.00 in CLR
22:00 66.5 °F 52.2 °F 29.97 in NNE 1.0 mph 9.0 mph 60% 0.00 in CLR
22:15 66.1 °F 51.8 °F 29.98 in Calm   6.0 mph 60% 0.00 in CLR
22:30 65.6 °F 51.3 °F 29.98 in North 1.0 mph 7.0 mph 60% 0.00 in CLR
22:45 65.2 °F 51.0 °F 29.98 in Calm   5.0 mph 60% 0.00 in CLR
23:00 64.9 °F 50.2 °F 29.98 in NE 2.0 mph 8.0 mph 59% 0.00 in CLR
23:30 63.7 °F 49.1 °F 29.99 in Calm   6.0 mph 59% 0.00 in CLR
23:45 63.4 °F 48.8 °F 30.00 in NNE 1.0 mph 9.0 mph 59% 0.00 in CLR
TarryTown NY Weather
Compliments of Weather Underground - 1.5 mb